Terminal Aerodrome Forecast
Issued by NWS

Home | Current Version | Previous Version | Text Only | Print | Product List | Glossary On
Versions: 1 2 3 4 5 6 7 8 9 10 11 12 13
000
FTUS44 KJAN 302300 RRA
TAFGTR
TAF
KGTR 302348Z 3100/3124 18006KT 6SM -SHRA BR SCT010 BKN020 OVC050
     FM310600 17008KT 5SM -TSRA BKN010 OVC020CB
     FM311100 17008KT 5SM BR VCSH BKN009 OVC025
     FM311600 20009KT P6SM VCSH BKN025 BKN050
     FM311800 20011KT P6SM SCT025 BKN050=

USA.gov is the U.S. government's official web portal to all federal, state and local government web resources and services.